createdAt,value
2022-09-27T00:00:28.134Z,99231.72
2022-09-27T00:05:30.943Z,99236.63
2022-09-27T00:10:33.385Z,99225.84
2022-09-27T00:15:35.739Z,99225.84
2022-09-27T00:20:38.309Z,99223.56
2022-09-27T00:25:40.763Z,99221.84
2022-09-27T00:30:43.391Z,99213.28
2022-09-27T00:35:45.910Z,99209.09
2022-09-27T00:40:48.641Z,99196.25
2022-09-27T00:45:54.011Z,99201.50
2022-09-27T00:50:59.753Z,99200.28
2022-09-27T00:56:05.470Z,99199.88
2022-09-27T01:01:13.872Z,99199.97
2022-09-27T01:06:17.998Z,99201.28
2022-09-27T01:11:29.055Z,99201.50
2022-09-27T01:17:16.985Z,99198.03
2022-09-27T01:22:29.719Z,99189.34
2022-09-27T01:27:58.701Z,99181.09
2022-09-27T01:33:07.057Z,99185.44
2022-09-27T01:38:23.747Z,99172.03
2022-09-27T01:44:01.619Z,99168.44
2022-09-27T01:49:18.429Z,99174.59
2022-09-27T01:54:26.218Z,99176.16
2022-09-27T02:00:05.309Z,99168.34
2022-09-27T02:05:18.139Z,99164.94
2022-09-27T02:10:27.947Z,99166.28
2022-09-27T02:15:38.127Z,99155.22
2022-09-27T02:21:02.008Z,99141.09
2022-09-27T02:26:19.613Z,99153.47
2022-09-27T02:31:23.900Z,99146.31
2022-09-27T02:36:26.817Z,99142.50
2022-09-27T02:41:29.275Z,99138.03
2022-09-27T02:46:53.248Z,99134.13
2022-09-27T02:52:01.857Z,99138.09
2022-09-27T02:57:10.009Z,99136.78
2022-09-27T03:02:57.126Z,99144.28
2022-09-27T03:08:29.396Z,99108.88
2022-09-27T03:13:32.562Z,99115.97
2022-09-27T03:18:35.753Z,99113.41
2022-09-27T03:24:02.060Z,99098.72
2022-09-27T03:29:05.506Z,99101.44
2022-09-27T03:34:08.190Z,99097.41
2022-09-27T03:39:10.742Z,99102.09
2022-09-27T03:44:13.182Z,99096.06
2022-09-27T03:49:15.662Z,99090.41
2022-09-27T03:54:18.111Z,99102.66
2022-09-27T03:59:20.481Z,99112.09
2022-09-27T04:04:41.260Z,99102.25
2022-09-27T04:09:44.953Z,99098.50
2022-09-27T04:14:47.696Z,99107.28
2022-09-27T04:20:09.273Z,99104.13
2022-09-27T04:25:13.886Z,99098.09
2022-09-27T04:30:16.923Z,99090.34
2022-09-27T04:36:02.448Z,99071.34
2022-09-27T04:41:05.469Z,99063.78
2022-09-27T04:46:09.940Z,99068.50
2022-09-27T04:51:12.371Z,99061.91
2022-09-27T04:56:16.223Z,99077.72
2022-09-27T05:01:19.507Z,99059.78
2022-09-27T05:06:40.493Z,99068.91
2022-09-27T05:11:53.256Z,99060.94
2022-09-27T05:17:15.265Z,99061.72
2022-09-27T05:22:36.311Z,99048.06
2022-09-27T05:27:39.096Z,99040.44
2022-09-27T05:32:44.227Z,99042.41
2022-09-27T05:38:01.790Z,99049.06
2022-09-27T05:43:07.251Z,99049.16
2022-09-27T05:48:09.999Z,99065.28
2022-09-27T05:53:19.452Z,99062.38
2022-09-27T05:58:22.958Z,99053.25
2022-09-27T06:03:34.203Z,99048.50
2022-09-27T06:08:52.090Z,99042.91
2022-09-27T06:13:55.554Z,99049.47
2022-09-27T06:18:59.935Z,99043.72
2022-09-27T06:24:02.771Z,99039.53
2022-09-27T06:29:09.396Z,99043.53
2022-09-27T06:34:14.618Z,99037.09
2022-09-27T06:39:17.511Z,99042.28
2022-09-27T06:44:40.127Z,99045.16
2022-09-27T06:50:03.808Z,99025.41
2022-09-27T06:55:07.144Z,99041.16
2022-09-27T07:00:24.170Z,99052.56
2022-09-27T07:05:56.097Z,99034.47
2022-09-27T07:11:22.116Z,99043.75
2022-09-27T07:16:24.800Z,99041.66
2022-09-27T07:21:27.652Z,99039.25
2022-09-27T07:26:30.424Z,99040.84
2022-09-27T07:31:34.016Z,99047.25
2022-09-27T07:36:36.634Z,99044.50
2022-09-27T07:41:40.513Z,99044.63
2022-09-27T07:46:42.981Z,99044.97
2022-09-27T07:51:54.552Z,99033.22
2022-09-27T07:57:23.850Z,99032.94
2022-09-27T08:02:28.779Z,99040.06
2022-09-27T08:07:33.042Z,99029.97
2022-09-27T08:12:36.974Z,99040.69
2022-09-27T08:17:39.637Z,99034.72
2022-09-27T08:23:11.737Z,99027.09
2022-09-27T08:28:18.147Z,99030.84
2022-09-27T08:33:32.921Z,99016.84
2022-09-27T08:38:37.103Z,99022.34
2022-09-27T08:43:50.777Z,99034.56
2022-09-27T08:49:07.169Z,99030.56
2022-09-27T08:54:19.141Z,99038.16
2022-09-27T08:59:26.594Z,99037.75
2022-09-27T09:04:35.319Z,99027.09
2022-09-27T09:10:02.689Z,99036.16
2022-09-27T09:16:10.384Z,99046.28
2022-09-27T09:21:41.493Z,99039.19
2022-09-27T09:27:09.306Z,99040.41
2022-09-27T09:32:26.984Z,99026.66
2022-09-27T09:38:12.972Z,99025.69
2022-09-27T09:43:29.168Z,99018.50
2022-09-27T09:48:39.704Z,99015.16
2022-09-27T09:53:50.972Z,99010.69
2022-09-27T09:59:03.923Z,99010.94
2022-09-27T10:04:20.604Z,98999.22
2022-09-27T10:09:25.787Z,98997.31
2022-09-27T10:15:01.947Z,98990.44
2022-09-27T10:20:07.182Z,98978.41
2022-09-27T10:25:10.937Z,98977.34
2022-09-27T10:30:24.293Z,98981.22
2022-09-27T10:35:29.572Z,98983.69
2022-09-27T10:40:35.441Z,98985.56
2022-09-27T10:45:42.556Z,98995.59
2022-09-27T10:50:59.608Z,98986.44
2022-09-27T10:56:30.068Z,98988.28
2022-09-27T11:01:45.636Z,98991.75
2022-09-27T11:07:15.248Z,98982.81
2022-09-27T11:12:23.123Z,98981.66
2022-09-27T11:17:57.244Z,98976.41
2022-09-27T11:23:16.000Z,98975.50
2022-09-27T11:28:43.298Z,98970.63
2022-09-27T11:34:01.320Z,98959.78
2022-09-27T11:39:08.687Z,98952.72
2022-09-27T11:44:31.760Z,98949.34
2022-09-27T11:49:56.527Z,98939.13
2022-09-27T11:55:10.926Z,98937.03
2022-09-27T12:00:21.832Z,98928.16
2022-09-27T12:05:57.408Z,98920.78
2022-09-27T12:11:30.499Z,98919.44
2022-09-27T12:16:33.643Z,98904.09
2022-09-27T12:21:36.527Z,98906.34
2022-09-27T12:26:42.153Z,98910.06
2022-09-27T12:32:18.963Z,98901.34
2022-09-27T12:37:26.398Z,98904.28
2022-09-27T12:42:49.267Z,98905.44
2022-09-27T12:48:34.367Z,98897.44
2022-09-27T12:54:24.346Z,98895.13
2022-09-27T12:59:55.236Z,98889.28
2022-09-27T13:05:31.518Z,98886.19
2022-09-27T13:10:47.549Z,98878.72
2022-09-27T13:16:02.766Z,98873.16
2022-09-27T13:21:11.146Z,98862.56
2022-09-27T13:26:43.827Z,98852.44
2022-09-27T13:31:58.996Z,98849.91
2022-09-27T13:37:36.995Z,98840.38
2022-09-27T13:43:06.762Z,98825.47
2022-09-27T13:48:16.503Z,98825.38
2022-09-27T13:53:39.044Z,98833.25
2022-09-27T13:58:58.373Z,98825.44
2022-09-27T14:04:46.523Z,98822.09
2022-09-27T14:09:53.301Z,98818.72
2022-09-27T14:15:00.161Z,98812.75
2022-09-27T14:20:03.817Z,98809.22
2022-09-27T14:25:17.797Z,98806.81
2022-09-27T14:30:28.018Z,98800.78
2022-09-27T14:36:08.171Z,98797.19
2022-09-27T14:41:12.809Z,98803.97
2022-09-27T14:46:32.052Z,98813.81
2022-09-27T14:51:34.647Z,98805.81
2022-09-27T14:56:38.162Z,98804.75
2022-09-27T15:01:42.874Z,98807.09
2022-09-27T15:06:45.842Z,98797.41
2022-09-27T15:11:52.947Z,98800.84
2022-09-27T15:16:57.067Z,98800.81
2022-09-27T15:22:23.011Z,98810.97
2022-09-27T15:27:26.041Z,98810.63
2022-09-27T15:32:29.342Z,98813.06
2022-09-27T15:37:37.964Z,98807.94
2022-09-27T15:42:59.671Z,98807.91
2022-09-27T15:48:21.506Z,98810.88
2022-09-27T15:53:35.817Z,98808.25
2022-09-27T15:58:38.165Z,98796.16
2022-09-27T16:03:41.013Z,98794.44
2022-09-27T16:08:44.479Z,98792.03
2022-09-27T16:13:47.002Z,98797.00
2022-09-27T16:18:49.989Z,98785.16
2022-09-27T16:23:52.367Z,98789.50
2022-09-27T16:28:54.946Z,98782.75
2022-09-27T16:33:58.294Z,98795.84
2022-09-27T16:39:00.713Z,98788.38
2022-09-27T16:44:11.048Z,98777.16
2022-09-27T16:49:32.194Z,98789.28
2022-09-27T16:54:34.562Z,98782.28
2022-09-27T16:59:37.127Z,98785.28
2022-09-27T17:04:39.446Z,98777.59
2022-09-27T17:09:43.028Z,98784.41
2022-09-27T17:14:45.380Z,98795.28
2022-09-27T17:19:48.631Z,98800.94
2022-09-27T17:24:51.395Z,98814.66
2022-09-27T17:29:54.481Z,98809.59
2022-09-27T17:34:57.420Z,98814.25
2022-09-27T17:39:59.762Z,98816.66
2022-09-27T17:45:02.106Z,98821.41
2022-09-27T17:50:23.284Z,98805.66
2022-09-27T17:55:27.116Z,98809.38
2022-09-27T18:00:29.989Z,98808.88
2022-09-27T18:05:32.404Z,98799.91
2022-09-27T18:10:35.625Z,98805.38
2022-09-27T18:15:38.076Z,98812.59
2022-09-27T18:20:40.479Z,98802.19
2022-09-27T18:25:43.231Z,98808.88
2022-09-27T18:36:05.885Z,98812.97
2022-09-27T18:41:17.457Z,98817.19
2022-09-27T18:46:37.257Z,98812.41
2022-09-27T18:51:44.879Z,98813.06
2022-09-27T18:56:49.265Z,98808.22
2022-09-27T19:01:51.980Z,98815.56
2022-09-27T19:06:55.722Z,98826.69
2022-09-27T19:11:58.101Z,98827.53
2022-09-27T19:17:00.478Z,98824.91
2022-09-27T19:22:02.908Z,98817.28
2022-09-27T19:27:05.321Z,98814.34
2022-09-27T19:32:07.779Z,98814.38
2022-09-27T19:37:10.150Z,98816.53
2022-09-27T19:42:12.538Z,98820.22
2022-09-27T19:47:15.026Z,98852.25
2022-09-27T19:52:17.393Z,98867.22
2022-09-27T19:57:19.964Z,98837.84
2022-09-27T20:02:22.353Z,98845.75
2022-09-27T20:07:25.011Z,98842.69
2022-09-27T20:12:27.639Z,98846.91
2022-09-27T20:17:33.974Z,98855.03
2022-09-27T20:22:36.314Z,98841.75
2022-09-27T20:27:39.891Z,98835.31
2022-09-27T20:33:02.168Z,98839.50
2022-09-27T20:38:05.517Z,98844.00
2022-09-27T20:43:07.830Z,98832.59
2022-09-27T20:48:10.228Z,98842.69
2022-09-27T20:53:13.107Z,98833.88
2022-09-27T20:58:15.526Z,98839.50
2022-09-27T21:03:21.751Z,98844.94
2022-09-27T21:08:26.162Z,98846.97
2022-09-27T21:13:28.711Z,98840.53
2022-09-27T21:18:31.365Z,98839.78
2022-09-27T21:23:35.736Z,98844.94
2022-09-27T21:28:42.906Z,98839.03
2022-09-27T21:33:48.942Z,98828.44
2022-09-27T21:38:51.770Z,98835.34
2022-09-27T21:43:54.702Z,98842.25
2022-09-27T21:48:58.851Z,98834.72
2022-09-27T21:54:02.976Z,98832.94
2022-09-27T21:59:06.381Z,98844.03
2022-09-27T22:04:08.770Z,98836.00
2022-09-27T22:09:17.706Z,98832.75
2022-09-27T22:14:20.404Z,98832.94
2022-09-27T22:19:23.571Z,98820.25
2022-09-27T22:24:25.986Z,98821.53
2022-09-27T22:29:28.500Z,98810.00
2022-09-27T22:34:31.588Z,98802.75
2022-09-27T22:39:34.109Z,98806.00
2022-09-27T22:44:37.569Z,98798.94
2022-09-27T22:49:39.959Z,98802.13
2022-09-27T22:54:42.337Z,98806.47
2022-09-27T22:59:44.731Z,98798.75
2022-09-27T23:04:48.738Z,98793.84
2022-09-27T23:09:51.338Z,98777.16
2022-09-27T23:14:53.691Z,98785.16
2022-09-27T23:19:56.065Z,98791.75
2022-09-27T23:24:58.599Z,98789.31
2022-09-27T23:30:00.944Z,98773.28
2022-09-27T23:35:03.535Z,98763.81
2022-09-27T23:40:06.662Z,98777.91
2022-09-27T23:45:09.357Z,98766.56
2022-09-27T23:50:11.747Z,98772.94
2022-09-27T23:55:14.157Z,98760.28
